Time;durP1;ratioP1;P1;durP2;ratioP2;P2;SDS_P1;SDS_P2;PMS_P1;PMS_P2;Temp;Humidity;BMP_temperature;BMP_pressure;BME280_temperature;BME280_humidity;BME280_pressure;Samples;Min_cycle;Max_cycle;Signal;HPM_P1;HPM_P2
2022/05/16 00:01:52;;;;;;;12.50;2.97;;;;;;;;;;5087734;28;20024;-71
2022/05/16 00:04:17;;;;;;;8.30;3.33;;;;;;;;;;5083473;28;20655;-71
2022/05/16 00:06:42;;;;;;;23.02;3.22;;;;;;;;;;5081982;28;20514;-70
2022/05/16 00:09:08;;;;;;;10.95;2.72;;;;;;;;;;5084457;28;20025;-70
2022/05/16 00:11:33;;;;;;;8.13;2.40;;;;;;;;;;5082113;28;20599;-70
2022/05/16 00:13:58;;;;;;;3.85;2.08;;;;;;;;;;5084155;28;20282;-70
2022/05/16 00:16:23;;;;;;;11.80;2.53;;;;;;;;;;5088617;28;20436;-70
2022/05/16 00:18:48;;;;;;;17.88;3.10;;;;;;;;;;5084115;28;20378;-70
2022/05/16 00:21:14;;;;;;;9.85;2.42;;;;;;;;;;5086419;28;20103;-70
2022/05/16 00:23:39;;;;;;;9.33;2.90;;;;;;;;;;5081573;28;20384;-70
2022/05/16 00:26:04;;;;;;;5.63;2.72;;;;;;;;;;5087899;28;20269;-70
2022/05/16 00:28:29;;;;;;;7.03;2.70;;;;;;;;;;5087870;28;20518;-70
2022/05/16 00:30:55;;;;;;;6.90;2.20;;;;;;;;;;5087425;28;20328;-70
2022/05/16 00:33:20;;;;;;;6.93;2.97;;;;;;;;;;5084855;28;20020;-70
2022/05/16 00:35:45;;;;;;;5.57;3.00;;;;;;;;;;5086489;28;20370;-70
2022/05/16 00:38:10;;;;;;;9.20;2.70;;;;;;;;;;5084750;28;20277;-71
2022/05/16 00:40:36;;;;;;;7.77;2.87;;;;;;;;;;5084073;28;20030;-70
2022/05/16 00:43:11;;;;;;;8.27;2.45;;;;;;;;;;5087467;28;20246;-70
2022/05/16 00:45:36;;;;;;;8.00;2.70;;;;;;;;;;5083375;28;20038;-70
2022/05/16 00:48:02;;;;;;;8.20;2.53;;;;;;;;;;5082289;28;20099;-70
2022/05/16 00:50:28;;;;;;;8.27;2.70;;;;;;;;;;5082529;28;20062;-70
2022/05/16 00:52:54;;;;;;;8.65;2.83;;;;;;;;;;5086221;28;20371;-70
2022/05/16 00:55:22;;;;;;;9.10;2.63;;;;;;;;;;5086411;28;20024;-70
2022/05/16 00:57:50;;;;;;;17.90;3.42;;;;;;;;;;5088331;28;20032;-70
2022/05/16 01:00:17;;;;;;;8.90;2.60;;;;;;;;;;5083491;28;20028;-70
2022/05/16 01:05:29;;;;;;;8.02;2.58;;;;;;;;;;5082428;28;20035;-70
2022/05/16 01:07:57;;;;;;;8.63;2.63;;;;;;;;;;5087300;28;20016;-71
2022/05/16 01:10:23;;;;;;;10.23;2.70;;;;;;;;;;5079410;28;20039;-70
2022/05/16 01:12:53;;;;;;;7.05;2.70;;;;;;;;;;5087504;28;20025;-70
2022/05/16 01:15:36;;;;;;;8.48;3.05;;;;;;;;;;5080920;28;20336;-70
2022/05/16 01:18:01;;;;;;;9.55;3.65;;;;;;;;;;5080393;28;20106;-70
2022/05/16 01:20:42;;;;;;;6.85;2.70;;;;;;;;;;5087176;28;20116;-71
2022/05/16 01:23:08;;;;;;;10.65;3.00;;;;;;;;;;5083868;28;20012;-70
2022/05/16 01:25:34;;;;;;;9.32;3.30;;;;;;;;;;5087628;28;20072;-70
2022/05/16 01:28:04;;;;;;;14.80;4.05;;;;;;;;;;5088260;28;20016;-70
2022/05/16 01:30:34;;;;;;;8.18;2.55;;;;;;;;;;5087057;28;20477;-71
2022/05/16 01:32:59;;;;;;;8.73;2.80;;;;;;;;;;5089291;28;20375;-70
2022/05/16 01:35:26;;;;;;;17.67;3.63;;;;;;;;;;5090340;28;20016;-70
2022/05/16 01:40:35;;;;;;;12.10;3.65;;;;;;;;;;5092447;28;20107;-70
2022/05/16 01:43:01;;;;;;;5.28;3.20;;;;;;;;;;5087840;28;20099;-71
2022/05/16 01:45:26;;;;;;;9.07;3.20;;;;;;;;;;5091648;28;20050;-70
2022/05/16 01:47:51;;;;;;;11.32;3.33;;;;;;;;;;5083592;28;20483;-70
2022/05/16 01:50:16;;;;;;;7.75;2.97;;;;;;;;;;5090362;28;20476;-70
2022/05/16 01:52:42;;;;;;;8.45;2.85;;;;;;;;;;5090034;28;20017;-70
2022/05/16 01:55:07;;;;;;;15.95;3.40;;;;;;;;;;5086155;28;20093;-70
2022/05/16 01:57:32;;;;;;;10.25;3.30;;;;;;;;;;5084398;28;20077;-71
2022/05/16 01:59:58;;;;;;;10.15;3.20;;;;;;;;;;5084925;28;20661;-70
2022/05/16 02:02:23;;;;;;;11.57;3.57;;;;;;;;;;5085176;28;20517;-70
2022/05/16 02:04:48;;;;;;;8.23;3.33;;;;;;;;;;5090826;28;20286;-70
2022/05/16 02:07:13;;;;;;;9.23;3.67;;;;;;;;;;5085695;28;20442;-70
2022/05/16 02:09:38;;;;;;;12.50;3.30;;;;;;;;;;5092265;28;20266;-70
2022/05/16 02:12:05;;;;;;;10.83;3.47;;;;;;;;;;5080029;28;20598;-70
2022/05/16 02:14:30;;;;;;;8.43;3.47;;;;;;;;;;5092128;28;20253;-70
2022/05/16 02:16:55;;;;;;;12.07;4.13;;;;;;;;;;5087188;28;20008;-70
2022/05/16 02:19:20;;;;;;;12.87;3.13;;;;;;;;;;5087560;28;20644;-71
2022/05/16 02:24:46;;;;;;;11.93;4.10;;;;;;;;;;5044198;28;20329;-70
2022/05/16 02:27:15;;;;;;;7.47;3.40;;;;;;;;;;5079010;28;20106;-70
2022/05/16 02:29:41;;;;;;;8.45;3.55;;;;;;;;;;5088811;28;20277;-70
2022/05/16 02:32:06;;;;;;;10.25;3.60;;;;;;;;;;5089633;28;20468;-70
2022/05/16 02:34:31;;;;;;;12.13;3.67;;;;;;;;;;5085828;28;20597;-70
2022/05/16 02:36:57;;;;;;;7.20;3.45;;;;;;;;;;5089272;28;20112;-70
2022/05/16 02:39:22;;;;;;;12.57;3.38;;;;;;;;;;5087824;28;20028;-70
2022/05/16 02:41:48;;;;;;;10.27;3.08;;;;;;;;;;5089151;28;20031;-70
2022/05/16 02:44:13;;;;;;;8.93;3.00;;;;;;;;;;5090672;28;20015;-71
2022/05/16 02:46:39;;;;;;;8.43;2.90;;;;;;;;;;5089483;28;20028;-70
2022/05/16 02:49:04;;;;;;;8.55;3.00;;;;;;;;;;5081069;28;20052;-70
2022/05/16 02:51:29;;;;;;;9.48;3.53;;;;;;;;;;5090673;28;20048;-70
2022/05/16 02:53:54;;;;;;;8.60;3.92;;;;;;;;;;5085916;28;20049;-70
2022/05/16 02:56:20;;;;;;;11.65;3.95;;;;;;;;;;5089671;28;20012;-70
2022/05/16 02:58:45;;;;;;;14.93;3.60;;;;;;;;;;5095152;22;20037;-65
2022/05/16 03:01:11;;;;;;;11.53;3.03;;;;;;;;;;5028866;28;20043;-65
2022/05/16 03:03:36;;;;;;;9.43;3.47;;;;;;;;;;5029102;28;20274;-65
2022/05/16 03:06:01;;;;;;;8.00;3.50;;;;;;;;;;5027275;28;20024;-65
2022/05/16 03:08:27;;;;;;;10.90;3.60;;;;;;;;;;5028258;28;20021;-65
2022/05/16 03:10:52;;;;;;;8.40;3.60;;;;;;;;;;5029643;28;20017;-65
2022/05/16 03:13:17;;;;;;;8.47;3.20;;;;;;;;;;5032398;28;20100;-66
2022/05/16 03:15:42;;;;;;;12.80;3.30;;;;;;;;;;5030203;28;20337;-65
2022/05/16 03:18:07;;;;;;;9.53;4.23;;;;;;;;;;5028604;28;20279;-65
2022/05/16 03:20:32;;;;;;;10.70;4.03;;;;;;;;;;5025608;28;20715;-65
2022/05/16 03:22:58;;;;;;;18.37;3.17;;;;;;;;;;5027804;28;20101;-65
2022/05/16 03:25:23;;;;;;;9.75;3.42;;;;;;;;;;5030132;28;20811;-65
2022/05/16 03:27:48;;;;;;;11.77;4.05;;;;;;;;;;5027141;28;20370;-66
2022/05/16 03:30:14;;;;;;;14.48;3.63;;;;;;;;;;5028720;28;20021;-66
2022/05/16 03:32:39;;;;;;;9.80;3.83;;;;;;;;;;5028296;28;20022;-66
2022/05/16 03:35:05;;;;;;;9.27;3.17;;;;;;;;;;5026737;28;20053;-65
2022/05/16 03:37:30;;;;;;;14.07;4.25;;;;;;;;;;5028309;28;20280;-65
2022/05/16 03:42:39;;;;;;;14.45;4.95;;;;;;;;;;5028783;28;20032;-67
2022/05/16 03:45:05;;;;;;;11.80;3.90;;;;;;;;;;5028545;28;20029;-65
2022/05/16 03:47:30;;;;;;;9.85;3.13;;;;;;;;;;5025578;28;20783;-67
2022/05/16 03:49:55;;;;;;;7.83;3.40;;;;;;;;;;5027732;28;20493;-66
2022/05/16 03:52:20;;;;;;;5.28;2.92;;;;;;;;;;5028398;28;20284;-67
2022/05/16 03:54:46;;;;;;;10.07;4.00;;;;;;;;;;5029324;28;20025;-65
2022/05/16 03:57:11;;;;;;;11.20;4.17;;;;;;;;;;5028003;28;20024;-66
2022/05/16 03:59:36;;;;;;;12.50;3.38;;;;;;;;;;5028084;28;20288;-66
2022/05/16 04:02:02;;;;;;;10.10;3.55;;;;;;;;;;5027262;28;20017;-66
2022/05/16 04:04:27;;;;;;;10.95;3.40;;;;;;;;;;5027858;28;20025;-65
2022/05/16 04:06:52;;;;;;;12.67;3.90;;;;;;;;;;5027596;28;20024;-67
2022/05/16 04:09:17;;;;;;;10.43;3.60;;;;;;;;;;5027498;28;20260;-65
2022/05/16 04:11:42;;;;;;;9.87;4.53;;;;;;;;;;5029174;28;20493;-65
2022/05/16 04:14:08;;;;;;;13.90;3.37;;;;;;;;;;5027582;28;20295;-65
2022/05/16 04:16:33;;;;;;;10.32;4.35;;;;;;;;;;5025298;28;20276;-65
2022/05/16 04:18:58;;;;;;;7.53;3.22;;;;;;;;;;5028532;28;20029;-65
2022/05/16 04:21:23;;;;;;;8.00;3.53;;;;;;;;;;5027004;28;20025;-66
2022/05/16 04:23:48;;;;;;;12.63;3.40;;;;;;;;;;5028042;28;20029;-66
2022/05/16 04:26:14;;;;;;;14.45;3.88;;;;;;;;;;5026917;28;20368;-66
2022/05/16 04:28:39;;;;;;;31.20;4.33;;;;;;;;;;5027459;28;20052;-67
2022/05/16 04:31:04;;;;;;;17.27;4.18;;;;;;;;;;5026238;28;20318;-68
2022/05/16 04:33:31;;;;;;;10.95;3.95;;;;;;;;;;5028793;28;20029;-68
2022/05/16 04:35:56;;;;;;;8.85;3.70;;;;;;;;;;5026374;28;20017;-67
2022/05/16 04:38:22;;;;;;;12.03;3.80;;;;;;;;;;5028386;28;20501;-67
2022/05/16 04:43:31;;;;;;;13.40;2.75;;;;;;;;;;5026703;28;20444;-67
2022/05/16 04:45:56;;;;;;;4.38;2.70;;;;;;;;;;5027685;28;20021;-67
2022/05/16 04:48:22;;;;;;;15.68;4.65;;;;;;;;;;5026190;28;20029;-67
2022/05/16 04:50:47;;;;;;;15.85;4.30;;;;;;;;;;5026840;28;20017;-67
2022/05/16 04:53:12;;;;;;;11.60;4.07;;;;;;;;;;5028387;28;20030;-67
2022/05/16 04:55:37;;;;;;;9.77;4.57;;;;;;;;;;5025338;28;20288;-66
2022/05/16 04:58:03;;;;;;;12.85;4.50;;;;;;;;;;5026602;28;20771;-67
2022/05/16 05:00:28;;;;;;;13.50;4.05;;;;;;;;;;5026678;28;20437;-67
2022/05/16 05:02:53;;;;;;;9.52;3.90;;;;;;;;;;5030997;28;20063;-67
2022/05/16 05:05:19;;;;;;;13.63;4.17;;;;;;;;;;5028453;28;20102;-67
2022/05/16 05:07:44;;;;;;;12.20;3.90;;;;;;;;;;5032357;28;20252;-67
2022/05/16 05:15:39;;;;;;;12.07;2.65;;;;;;;;;;5027392;28;20044;-66
2022/05/16 05:18:04;;;;;;;12.10;3.00;;;;;;;;;;5033199;28;20029;-66
2022/05/16 05:20:32;;;;;;;9.02;2.58;;;;;;;;;;5026417;28;20106;-67
2022/05/16 05:22:58;;;;;;;9.40;3.45;;;;;;;;;;5029421;28;20493;-67
2022/05/16 05:25:23;;;;;;;11.50;3.05;;;;;;;;;;5027076;28;20021;-67
2022/05/16 05:27:48;;;;;;;10.90;2.87;;;;;;;;;;5027827;28;20108;-67
2022/05/16 05:30:16;;;;;;;10.80;2.72;;;;;;;;;;5031278;28;20362;-67
2022/05/16 05:32:44;;;;;;;7.93;2.97;;;;;;;;;;5032186;28;20776;-67
2022/05/16 05:35:11;;;;;;;7.53;3.38;;;;;;;;;;5028938;28;20286;-66
2022/05/16 05:37:36;;;;;;;11.38;2.95;;;;;;;;;;5029920;28;20030;-67
2022/05/16 05:40:04;;;;;;;5.95;2.33;;;;;;;;;;5015199;28;20084;-67
2022/05/16 05:42:30;;;;;;;8.50;3.00;;;;;;;;;;5028127;28;20025;-67
2022/05/16 05:44:55;;;;;;;8.23;3.40;;;;;;;;;;5027517;28;20021;-67
2022/05/16 05:47:21;;;;;;;8.93;2.90;;;;;;;;;;5028454;28;20010;-67
2022/05/16 05:49:46;;;;;;;6.13;2.70;;;;;;;;;;5027937;28;20744;-67
2022/05/16 05:52:11;;;;;;;9.35;2.35;;;;;;;;;;5026239;28;20033;-67
2022/05/16 05:54:37;;;;;;;15.15;2.90;;;;;;;;;;5029575;28;20022;-67
2022/05/16 05:57:02;;;;;;;12.27;2.83;;;;;;;;;;5027556;28;20045;-66
2022/05/16 05:59:28;;;;;;;7.75;2.65;;;;;;;;;;5027707;28;20687;-66
2022/05/16 06:01:53;;;;;;;8.63;3.35;;;;;;;;;;5026057;28;20532;-67
2022/05/16 06:04:18;;;;;;;12.50;2.95;;;;;;;;;;5025960;28;20037;-66
2022/05/16 06:06:46;;;;;;;13.00;2.97;;;;;;;;;;5027678;28;20159;-67
2022/05/16 06:09:11;;;;;;;12.85;2.67;;;;;;;;;;5029772;28;20288;-64
2022/05/16 06:11:36;;;;;;;8.07;3.10;;;;;;;;;;5025467;28;20052;-65
2022/05/16 06:14:02;;;;;;;9.70;2.73;;;;;;;;;;5028760;28;20366;-66
2022/05/16 06:16:27;;;;;;;8.93;2.88;;;;;;;;;;5032466;28;20466;-67
2022/05/16 06:18:52;;;;;;;9.40;2.60;;;;;;;;;;5031460;28;20056;-67
2022/05/16 06:21:17;;;;;;;23.17;4.03;;;;;;;;;;5027984;28;20756;-67
2022/05/16 06:23:43;;;;;;;6.07;2.45;;;;;;;;;;5029465;28;20276;-67
2022/05/16 06:26:08;;;;;;;11.40;2.03;;;;;;;;;;5027147;28;20021;-68
2022/05/16 06:28:37;;;;;;;8.03;2.53;;;;;;;;;;5029944;28;20308;-67
2022/05/16 06:31:03;;;;;;;10.57;3.60;;;;;;;;;;5029880;28;20275;-66
2022/05/16 06:33:29;;;;;;;7.47;2.90;;;;;;;;;;5027428;28;20529;-67
2022/05/16 06:35:54;;;;;;;3.88;1.50;;;;;;;;;;5027074;28;20014;-66
2022/05/16 06:38:25;;;;;;;7.70;2.42;;;;;;;;;;5027102;28;20041;-66
2022/05/16 06:40:50;;;;;;;10.18;2.30;;;;;;;;;;5027433;28;20497;-67
2022/05/16 06:43:17;;;;;;;7.50;2.20;;;;;;;;;;5030052;28;20029;-66
2022/05/16 06:45:42;;;;;;;5.53;2.92;;;;;;;;;;5027549;28;20017;-66
2022/05/16 06:48:07;;;;;;;13.38;2.30;;;;;;;;;;5028517;28;20021;-66
2022/05/16 06:50:33;;;;;;;13.82;3.22;;;;;;;;;;5026610;28;20033;-66
2022/05/16 06:52:59;;;;;;;11.25;2.30;;;;;;;;;;5027856;28;20487;-66
2022/05/16 06:55:24;;;;;;;7.28;2.47;;;;;;;;;;5027443;28;20038;-66
2022/05/16 06:57:50;;;;;;;11.25;2.50;;;;;;;;;;5027800;28;20017;-67
2022/05/16 07:00:15;;;;;;;3.38;2.25;;;;;;;;;;5023602;28;20371;-67
2022/05/16 07:02:41;;;;;;;12.23;3.28;;;;;;;;;;5030684;28;20026;-66
2022/05/16 07:05:06;;;;;;;11.75;3.40;;;;;;;;;;5025182;28;20029;-66
2022/05/16 07:07:32;;;;;;;2.33;1.63;;;;;;;;;;5027902;28;20449;-67
2022/05/16 07:09:57;;;;;;;6.00;2.55;;;;;;;;;;5010616;28;20053;-67
2022/05/16 07:12:24;;;;;;;9.60;1.93;;;;;;;;;;5028129;28;20469;-66
2022/05/16 07:14:49;;;;;;;5.32;2.00;;;;;;;;;;5028172;28;20755;-67
2022/05/16 07:17:14;;;;;;;5.87;2.33;;;;;;;;;;5025728;28;20045;-67
2022/05/16 07:19:39;;;;;;;16.27;2.83;;;;;;;;;;5021010;28;20265;-66
2022/05/16 07:22:09;;;;;;;19.00;3.58;;;;;;;;;;5028003;28;20276;-66
2022/05/16 07:24:34;;;;;;;16.02;3.08;;;;;;;;;;5027420;28;20025;-66
2022/05/16 07:29:43;;;;;;;14.95;4.13;;;;;;;;;;5025994;28;20089;-66
2022/05/16 07:32:10;;;;;;;12.82;4.00;;;;;;;;;;5030079;28;20053;-66
2022/05/16 07:34:35;;;;;;;12.82;3.60;;;;;;;;;;5025692;28;20017;-66
2022/05/16 07:37:00;;;;;;;15.87;4.03;;;;;;;;;;5016306;28;20473;-65
2022/05/16 07:39:26;;;;;;;14.15;4.75;;;;;;;;;;5026992;28;20280;-65
2022/05/16 07:41:54;;;;;;;14.60;5.07;;;;;;;;;;5028187;28;20450;-65
2022/05/16 07:44:19;;;;;;;18.20;4.78;;;;;;;;;;5028418;28;20025;-65
2022/05/16 07:46:44;;;;;;;13.95;5.47;;;;;;;;;;5028307;28;20446;-66
2022/05/16 07:49:10;;;;;;;15.17;5.30;;;;;;;;;;5024047;28;20449;-65
2022/05/16 07:51:35;;;;;;;19.30;6.00;;;;;;;;;;5029987;28;20026;-65
2022/05/16 07:54:01;;;;;;;27.73;6.45;;;;;;;;;;5027319;28;20079;-65
2022/05/16 07:56:26;;;;;;;15.33;4.80;;;;;;;;;;5025317;28;20055;-66
2022/05/16 07:58:51;;;;;;;17.43;5.77;;;;;;;;;;5028064;28;20379;-64
2022/05/16 08:01:16;;;;;;;19.20;6.40;;;;;;;;;;5027528;28;20021;-65
2022/05/16 08:03:41;;;;;;;17.50;6.03;;;;;;;;;;5025596;28;20018;-65
2022/05/16 08:06:07;;;;;;;16.02;5.65;;;;;;;;;;5028725;28;20307;-65
2022/05/16 08:11:15;;;;;;;19.85;6.22;;;;;;;;;;5026831;28;20290;-65
2022/05/16 08:13:42;;;;;;;26.70;6.82;;;;;;;;;;5026636;28;20442;-65
2022/05/16 08:16:07;;;;;;;16.92;7.07;;;;;;;;;;5028195;28;20032;-65
2022/05/16 08:18:32;;;;;;;18.67;7.05;;;;;;;;;;5025589;28;20033;-66
2022/05/16 08:20:59;;;;;;;16.25;6.05;;;;;;;;;;5026949;28;20421;-66
2022/05/16 08:23:25;;;;;;;22.50;6.93;;;;;;;;;;5025240;28;20018;-65
2022/05/16 08:25:52;;;;;;;13.25;6.18;;;;;;;;;;5027995;28;20025;-65
2022/05/16 08:28:17;;;;;;;16.55;6.40;;;;;;;;;;5028777;28;20022;-65
2022/05/16 08:30:43;;;;;;;15.50;6.05;;;;;;;;;;5025851;28;20021;-65
2022/05/16 08:33:08;;;;;;;16.80;6.93;;;;;;;;;;5026587;28;20034;-65
2022/05/16 08:35:33;;;;;;;16.80;7.35;;;;;;;;;;5028116;28;20037;-65
2022/05/16 08:40:45;;;;;;;16.13;7.00;;;;;;;;;;5025660;28;20389;-66
2022/05/16 08:43:15;;;;;;;13.55;6.50;;;;;;;;;;5027913;28;20473;-65
2022/05/16 08:45:43;;;;;;;23.80;5.35;;;;;;;;;;5028321;28;20025;-66
2022/05/16 08:48:22;;;;;;;10.07;4.45;;;;;;;;;;5027217;28;20032;-65
2022/05/16 08:50:50;;;;;;;15.82;5.20;;;;;;;;;;5026892;28;20040;-65
2022/05/16 08:53:18;;;;;;;19.05;5.88;;;;;;;;;;5026366;28;20065;-66
2022/05/16 08:55:55;;;;;;;17.63;5.68;;;;;;;;;;5027780;28;20025;-65
2022/05/16 08:58:23;;;;;;;16.73;5.53;;;;;;;;;;5022845;28;20029;-65
2022/05/16 09:00:51;;;;;;;15.50;5.47;;;;;;;;;;5028507;28;20112;-66
2022/05/16 09:03:38;;;;;;;11.32;4.88;;;;;;;;;;5027451;28;20014;-65
2022/05/16 09:06:11;;;;;;;13.07;5.00;;;;;;;;;;5025642;28;20010;-65
2022/05/16 09:08:49;;;;;;;16.98;4.65;;;;;;;;;;5024976;28;20493;-65
2022/05/16 09:11:22;;;;;;;17.88;5.78;;;;;;;;;;5025208;28;20021;-65
2022/05/16 09:13:53;;;;;;;13.50;5.28;;;;;;;;;;5028672;28;20017;-64
2022/05/16 09:16:27;;;;;;;12.75;4.72;;;;;;;;;;5024986;28;20022;-64
2022/05/16 09:18:59;;;;;;;12.48;4.30;;;;;;;;;;5028072;28;20441;-65
2022/05/16 09:21:43;;;;;;;19.02;4.57;;;;;;;;;;5022190;28;20733;-64
2022/05/16 09:24:14;;;;;;;12.43;5.43;;;;;;;;;;5025271;28;20048;-65
2022/05/16 09:26:42;;;;;;;10.13;5.13;;;;;;;;;;5028500;28;20041;-64
2022/05/16 09:29:17;;;;;;;8.82;4.95;;;;;;;;;;5026364;28;20013;-65
2022/05/16 09:31:44;;;;;;;13.30;4.43;;;;;;;;;;5023388;28;20509;-65
2022/05/16 09:34:10;;;;;;;6.53;3.53;;;;;;;;;;5025849;28;20482;-65
2022/05/16 09:36:36;;;;;;;8.93;3.70;;;;;;;;;;5025628;28;20044;-65
2022/05/16 09:39:03;;;;;;;11.10;3.78;;;;;;;;;;5028243;28;20017;-65
2022/05/16 09:41:39;;;;;;;10.18;4.22;;;;;;;;;;5026913;28;20316;-65
2022/05/16 09:44:23;;;;;;;10.63;4.53;;;;;;;;;;5026883;28;20092;-64
2022/05/16 09:46:49;;;;;;;6.90;3.60;;;;;;;;;;5006717;28;20080;-65
2022/05/16 09:49:25;;;;;;;9.35;3.35;;;;;;;;;;5030937;28;20052;-65
2022/05/16 09:51:50;;;;;;;12.27;3.80;;;;;;;;;;5030862;28;20021;-65
2022/05/16 09:54:15;;;;;;;12.40;4.70;;;;;;;;;;5028544;28;20017;-65
2022/05/16 09:56:55;;;;;;;7.00;2.57;;;;;;;;;;5027927;28;20021;-66
2022/05/16 09:59:20;;;;;;;;;;;;;;;;;;5029734;28;20379;-66
2022/05/16 10:01:51;;;;;;;7.88;3.50;;;;;;;;;;5030431;28;20016;-66
2022/05/16 10:04:16;;;;;;;;;;;;;;;;;;5030916;28;20060;-66
2022/05/16 10:06:44;;;;;;;8.25;3.95;;;;;;;;;;5030323;28;19945;-66
2022/05/16 10:09:10;;;;;;;15.95;4.75;;;;;;;;;;5029037;28;20112;-66
2022/05/16 10:11:37;;;;;;;16.98;4.15;;;;;;;;;;5029391;28;20098;-66
2022/05/16 10:14:03;;;;;;;16.25;4.10;;;;;;;;;;5028561;28;21442;-66
2022/05/16 10:16:31;;;;;;;10.57;3.95;;;;;;;;;;5029662;28;20022;-65
2022/05/16 10:19:15;;;;;;;9.82;4.28;;;;;;;;;;5028912;28;20033;-66
2022/05/16 10:21:48;;;;;;;9.63;3.20;;;;;;;;;;5026472;28;20576;-66
2022/05/16 10:24:13;;;;;;;7.57;3.42;;;;;;;;;;5029099;28;20474;-66
2022/05/16 10:26:41;;;;;;;10.00;3.55;;;;;;;;;;5029601;28;20032;-65
2022/05/16 10:29:12;;;;;;;9.90;2.83;;;;;;;;;;5027475;28;20044;-67
2022/05/16 10:34:50;;;;;;;8.05;3.10;;;;;;;;;;5027809;28;20508;-66
2022/05/16 10:37:16;;;;;;;9.93;3.50;;;;;;;;;;5028761;28;20049;-65
2022/05/16 10:39:43;;;;;;;4.85;2.72;;;;;;;;;;5026761;28;20384;-66
2022/05/16 10:42:11;;;;;;;8.55;3.25;;;;;;;;;;5027967;28;20017;-66
2022/05/16 10:44:55;;;;;;;11.35;3.83;;;;;;;;;;5026075;28;20029;-66
2022/05/16 10:47:27;;;;;;;24.73;9.13;;;;;;;;;;5026843;28;20049;-66
2022/05/16 10:50:02;;;;;;;9.68;3.92;;;;;;;;;;5026800;28;20037;-66
2022/05/16 10:52:33;;;;;;;25.33;10.77;;;;;;;;;;5026012;28;20026;-66
2022/05/16 10:54:58;;;;;;;9.57;3.35;;;;;;;;;;5026888;28;20022;-66
2022/05/16 10:57:39;;;;;;;11.32;5.72;;;;;;;;;;5029510;28;20025;-66
2022/05/16 11:00:10;;;;;;;7.70;3.60;;;;;;;;;;5024117;28;20026;-66
2022/05/16 11:02:38;;;;;;;11.98;3.17;;;;;;;;;;5026154;28;20032;-66
2022/05/16 11:05:09;;;;;;;6.80;2.88;;;;;;;;;;5027705;28;20009;-68
2022/05/16 11:07:53;;;;;;;9.82;2.00;;;;;;;;;;5025600;28;20025;-67
2022/05/16 11:10:18;;;;;;;6.78;2.80;;;;;;;;;;5020364;28;20127;-66
2022/05/16 11:12:46;;;;;;;10.47;3.37;;;;;;;;;;5027527;28;20793;-67
2022/05/16 11:15:34;;;;;;;10.00;2.42;;;;;;;;;;5025272;28;20025;-67
2022/05/16 11:18:06;;;;;;;9.20;3.72;;;;;;;;;;5018854;28;20040;-66
2022/05/16 11:20:36;;;;;;;9.18;3.25;;;;;;;;;;5023821;28;20017;-67
2022/05/16 11:23:04;;;;;;;11.43;2.40;;;;;;;;;;5029617;28;20020;-67
2022/05/16 11:25:32;;;;;;;4.50;2.45;;;;;;;;;;5026332;28;20036;-67
2022/05/16 11:28:06;;;;;;;6.90;2.58;;;;;;;;;;5026345;28;20023;-66
2022/05/16 11:30:34;;;;;;;7.32;2.70;;;;;;;;;;5027919;28;20036;-67
2022/05/16 11:33:00;;;;;;;9.68;2.35;;;;;;;;;;5028888;28;20032;-67
2022/05/16 11:35:44;;;;;;;5.85;1.80;;;;;;;;;;5023358;28;20433;-67
2022/05/16 11:38:27;;;;;;;4.18;2.13;;;;;;;;;;5024336;28;20095;-66
2022/05/16 11:41:08;;;;;;;17.30;2.42;;;;;;;;;;5027782;28;20017;-67
2022/05/16 11:43:40;;;;;;;4.70;2.13;;;;;;;;;;5026662;28;20049;-66
2022/05/16 11:46:17;;;;;;;10.52;2.15;;;;;;;;;;5028223;28;20088;-67
2022/05/16 11:48:58;;;;;;;8.52;2.72;;;;;;;;;;5027218;28;20104;-67
2022/05/16 11:51:43;;;;;;;9.18;2.63;;;;;;;;;;5024519;28;20025;-66
2022/05/16 11:54:09;;;;;;;13.30;3.67;;;;;;;;;;5028460;28;20071;-66
2022/05/16 12:02:10;;;;;;;13.93;4.20;;;;;;;;;;5024669;28;20040;-67
2022/05/16 12:04:40;;;;;;;9.37;3.03;;;;;;;;;;5025633;28;20022;-67
2022/05/16 12:07:12;;;;;;;11.57;3.38;;;;;;;;;;5027019;28;20271;-67
2022/05/16 12:09:50;;;;;;;13.13;4.07;;;;;;;;;;5028863;28;20025;-67
2022/05/16 12:12:27;;;;;;;9.15;3.97;;;;;;;;;;5023379;28;20021;-66
2022/05/16 12:15:10;;;;;;;9.48;3.78;;;;;;;;;;5022650;28;20490;-66
2022/05/16 12:17:36;;;;;;;13.55;4.68;;;;;;;;;;5020318;28;20021;-66
2022/05/16 12:20:07;;;;;;;13.80;3.92;;;;;;;;;;5023065;28;20025;-66
2022/05/16 12:22:36;;;;;;;13.27;3.42;;;;;;;;;;5019777;28;20025;-66
2022/05/16 12:25:01;;;;;;;14.93;3.60;;;;;;;;;;5016310;28;20501;-66
2022/05/16 12:27:29;;;;;;;11.45;3.97;;;;;;;;;;5019925;28;20026;-66
2022/05/16 12:29:56;;;;;;;9.50;4.60;;;;;;;;;;5025073;28;20013;-66
2022/05/16 12:32:22;;;;;;;13.15;4.55;;;;;;;;;;5025435;28;20075;-66
2022/05/16 12:34:50;;;;;;;13.33;4.23;;;;;;;;;;5025716;28;20041;-66
2022/05/16 12:37:17;;;;;;;16.50;4.65;;;;;;;;;;5024516;28;20143;-66
2022/05/16 12:40:01;;;;;;;16.13;4.50;;;;;;;;;;5010478;28;20088;-66
2022/05/16 12:42:46;;;;;;;10.05;4.18;;;;;;;;;;5026874;28;20054;-66
2022/05/16 12:45:30;;;;;;;11.52;4.32;;;;;;;;;;5025465;28;20025;-66
2022/05/16 12:48:27;;;;;;;10.45;4.70;;;;;;;;;;5023863;28;20105;-66
2022/05/16 12:51:10;;;;;;;8.93;5.15;;;;;;;;;;5026742;28;20079;-66
2022/05/16 12:54:13;;;;;;;8.90;5.38;;;;;;;;;;5018590;28;20096;-67
2022/05/16 12:56:41;;;;;;;12.82;4.65;;;;;;;;;;4982235;28;20030;-66
2022/05/16 12:59:06;;;;;;;14.50;5.70;;;;;;;;;;4987963;28;20479;-67
2022/05/16 13:01:37;;;;;;;14.27;6.10;;;;;;;;;;5012445;28;20506;-66
2022/05/16 13:04:32;;;;;;;26.10;7.53;;;;;;;;;;5022260;28;20026;-66
2022/05/16 13:06:59;;;;;;;10.77;5.82;;;;;;;;;;5015679;28;20048;-66
2022/05/16 13:09:33;;;;;;;14.57;6.25;;;;;;;;;;5019397;28;20629;-66
2022/05/16 13:11:58;;;;;;;15.45;5.05;;;;;;;;;;5020287;28;20025;-66
2022/05/16 13:14:35;;;;;;;20.60;5.65;;;;;;;;;;5022054;28;20032;-66
2022/05/16 13:17:04;;;;;;;13.75;5.88;;;;;;;;;;5025993;28;20067;-66
2022/05/16 13:19:31;;;;;;;17.98;5.82;;;;;;;;;;5023424;28;20499;-66
2022/05/16 13:22:06;;;;;;;17.40;7.35;;;;;;;;;;5024463;28;20028;-66
2022/05/16 13:24:32;;;;;;;14.52;4.03;;;;;;;;;;5027796;28;20430;-67
2022/05/16 13:29:43;;;;;;;23.58;6.13;;;;;;;;;;5027839;28;20067;-66
2022/05/16 13:32:10;;;;;;;15.77;5.57;;;;;;;;;;5029237;28;20522;-66
2022/05/16 13:34:38;;;;;;;13.27;5.05;;;;;;;;;;5031633;28;20104;-66
2022/05/16 13:37:07;;;;;;;18.08;4.72;;;;;;;;;;5024403;28;20059;-66
2022/05/16 13:39:36;;;;;;;14.73;3.95;;;;;;;;;;5010824;28;20029;-66
2022/05/16 13:42:01;;;;;;;10.00;3.95;;;;;;;;;;5031304;28;20032;-66
2022/05/16 13:44:38;;;;;;;11.55;4.28;;;;;;;;;;5032641;28;20018;-66
2022/05/16 13:47:04;;;;;;;15.30;6.32;;;;;;;;;;5025531;28;20013;-66
2022/05/16 13:49:29;;;;;;;11.55;4.80;;;;;;;;;;5026913;28;20025;-66
2022/05/16 13:51:55;;;;;;;14.82;4.93;;;;;;;;;;5027389;28;20430;-66
2022/05/16 13:54:22;;;;;;;21.02;6.05;;;;;;;;;;5029059;28;20025;-66
2022/05/16 13:56:49;;;;;;;16.63;4.72;;;;;;;;;;5029087;28;20104;-66
2022/05/16 13:59:20;;;;;;;7.57;4.43;;;;;;;;;;5031253;28;20025;-67
2022/05/16 14:01:49;;;;;;;18.30;4.65;;;;;;;;;;5026901;28;20022;-66
2022/05/16 14:04:14;;;;;;;15.45;5.53;;;;;;;;;;5026867;28;20013;-67
2022/05/16 14:06:47;;;;;;;14.70;5.47;;;;;;;;;;5029038;28;20474;-66
2022/05/16 14:09:19;;;;;;;16.70;5.28;;;;;;;;;;5033913;28;20014;-66
2022/05/16 14:11:45;;;;;;;16.50;6.15;;;;;;;;;;5029580;28;20092;-66
2022/05/16 14:14:11;;;;;;;17.77;7.13;;;;;;;;;;5030435;28;20037;-66
2022/05/16 14:16:39;;;;;;;18.13;4.90;;;;;;;;;;5025754;28;20533;-65
2022/05/16 14:19:06;;;;;;;26.90;5.22;;;;;;;;;;5025502;28;20040;-66
2022/05/16 14:21:44;;;;;;;12.48;4.35;;;;;;;;;;5025302;28;20378;-65
2022/05/16 14:24:11;;;;;;;15.48;4.25;;;;;;;;;;5029078;28;20395;-65
2022/05/16 14:26:39;;;;;;;17.75;5.97;;;;;;;;;;5028785;28;20091;-66
2022/05/16 14:29:20;;;;;;;16.73;5.70;;;;;;;;;;5024252;28;20025;-66
2022/05/16 14:32:11;;;;;;;17.67;4.93;;;;;;;;;;5025515;28;20021;-66
2022/05/16 14:34:42;;;;;;;14.98;5.50;;;;;;;;;;5023202;28;20033;-67
2022/05/16 14:37:07;;;;;;;;;;;;;;;;;;5028959;28;20028;-66
2022/05/16 14:39:40;;;;;;;5.07;2.80;;;;;;;;;;5028333;28;20003;-66
2022/05/16 14:42:09;;;;;;;14.15;5.53;;;;;;;;;;5026370;28;20497;-66
2022/05/16 14:44:39;;;;;;;14.88;6.28;;;;;;;;;;5024614;28;20017;-65
2022/05/16 14:47:23;;;;;;;19.25;7.85;;;;;;;;;;5027591;28;20092;-66
2022/05/16 14:49:48;;;;;;;26.88;9.00;;;;;;;;;;5023546;28;20024;-66
2022/05/16 14:52:15;;;;;;;23.33;10.25;;;;;;;;;;5026761;28;20257;-66
2022/05/16 14:54:51;;;;;;;16.65;7.88;;;;;;;;;;5030671;28;20033;-66
2022/05/16 14:57:16;;;;;;;24.42;8.98;;;;;;;;;;5029368;28;20079;-66
2022/05/16 14:59:42;;;;;;;18.87;8.40;;;;;;;;;;5120827;23;20037;-70
2022/05/16 15:04:51;;;;;;;21.83;5.70;;;;;;;;;;5067596;28;20085;-69
2022/05/16 15:07:17;;;;;;;10.60;4.90;;;;;;;;;;5063070;28;20017;-70
2022/05/16 15:09:43;;;;;;;14.40;5.25;;;;;;;;;;5061914;28;20511;-69
2022/05/16 15:12:09;;;;;;;12.95;5.43;;;;;;;;;;5062598;28;20027;-69
2022/05/16 15:14:36;;;;;;;12.43;5.40;;;;;;;;;;5064055;28;20016;-70
2022/05/16 15:17:01;;;;;;;14.82;6.70;;;;;;;;;;5061278;28;20016;-69
2022/05/16 15:19:27;;;;;;;18.90;7.30;;;;;;;;;;5070942;28;20028;-69
2022/05/16 15:21:55;;;;;;;21.92;8.13;;;;;;;;;;5067308;28;20020;-70
2022/05/16 15:24:31;;;;;;;15.30;6.15;;;;;;;;;;5072709;28;20019;-71